createdAt,value
2018-12-15T00:03:57.840Z,25.70
2018-12-15T00:06:39.573Z,30.07
2018-12-15T00:09:17.238Z,25.00
2018-12-15T00:11:46.823Z,26.27
2018-12-15T00:14:14.997Z,26.77
2018-12-15T00:16:43.294Z,27.17
2018-12-15T00:19:12.669Z,29.87
2018-12-15T00:24:46.739Z,28.87
2018-12-15T00:27:25.480Z,27.73
2018-12-15T00:29:53.999Z,28.77
2018-12-15T00:32:22.322Z,29.90
2018-12-15T00:35:06.975Z,29.70
2018-12-15T00:37:35.214Z,28.53
2018-12-15T00:40:11.243Z,29.50
2018-12-15T00:42:39.594Z,27.40
2018-12-15T00:48:03.960Z,27.30
2018-12-15T00:53:27.841Z,30.27
2018-12-15T00:55:56.053Z,29.10
2018-12-15T00:58:24.278Z,33.20
2018-12-15T01:00:53.492Z,31.93
2018-12-15T01:03:34.117Z,30.70
2018-12-15T01:11:54.370Z,27.03
2018-12-15T01:14:24.239Z,32.13
2018-12-15T01:16:52.857Z,31.23
2018-12-15T01:19:22.501Z,29.97
2018-12-15T01:21:51.133Z,30.40
2018-12-15T01:24:19.446Z,30.57
2018-12-15T01:26:48.900Z,28.53
2018-12-15T01:29:17.212Z,29.30
2018-12-15T01:31:46.117Z,30.10
2018-12-15T01:37:21.211Z,29.97
2018-12-15T01:39:49.533Z,29.73
2018-12-15T01:42:17.990Z,29.37
2018-12-15T01:44:46.589Z,26.93
2018-12-15T01:47:14.984Z,30.27
2018-12-15T01:49:43.224Z,32.57
2018-12-15T01:52:15.763Z,33.23
2018-12-15T01:54:43.959Z,29.13
2018-12-15T02:00:13.243Z,29.63
2018-12-15T02:02:41.692Z,31.30
2018-12-15T02:05:15.885Z,30.93
2018-12-15T02:10:47.393Z,32.47
2018-12-15T02:13:18.752Z,32.43
2018-12-15T02:15:54.931Z,31.70
2018-12-15T02:18:28.616Z,31.40
2018-12-15T02:20:57.119Z,31.20
2018-12-15T02:29:08.171Z,33.43
2018-12-15T02:34:28.721Z,33.07
2018-12-15T02:36:57.008Z,35.20
2018-12-15T02:39:25.184Z,36.43
2018-12-15T02:41:54.149Z,33.50
2018-12-15T02:44:22.338Z,34.10
2018-12-15T02:46:54.343Z,35.60
2018-12-15T02:49:22.843Z,29.87
2018-12-15T02:54:46.475Z,32.47
2018-12-15T03:00:11.885Z,36.67
2018-12-15T03:08:38.905Z,38.37
2018-12-15T03:14:14.552Z,32.70
2018-12-15T03:19:46.181Z,35.50
2018-12-15T03:22:28.367Z,35.73
2018-12-15T03:25:03.092Z,33.73
2018-12-15T03:27:31.305Z,33.40
2018-12-15T03:32:45.703Z,37.03
2018-12-15T03:35:13.982Z,34.87
2018-12-15T03:37:47.838Z,35.00
2018-12-15T03:49:03.004Z,34.53
2018-12-15T03:51:31.284Z,33.57
2018-12-15T03:54:11.790Z,33.90
2018-12-15T03:56:46.060Z,30.27
2018-12-15T04:02:09.850Z,35.43
2018-12-15T04:04:38.034Z,34.83
2018-12-15T04:07:06.757Z,34.40
2018-12-15T04:09:35.265Z,33.80
2018-12-15T04:12:03.341Z,34.23
2018-12-15T04:14:31.466Z,35.07
2018-12-15T04:17:02.995Z,38.70
2018-12-15T04:19:31.354Z,33.13
2018-12-15T04:22:05.350Z,34.23
2018-12-15T04:24:33.587Z,32.80
2018-12-15T04:27:01.948Z,33.27
2018-12-15T04:29:30.113Z,32.57
2018-12-15T04:31:58.238Z,31.73
2018-12-15T04:34:26.818Z,32.30
2018-12-15T04:36:55.055Z,35.40
2018-12-15T04:39:23.186Z,31.60
2018-12-15T04:41:51.317Z,34.10
2018-12-15T04:44:19.926Z,32.20
2018-12-15T04:46:48.347Z,34.33
2018-12-15T04:49:17.367Z,31.87
2018-12-15T04:51:45.713Z,36.30
2018-12-15T04:54:13.893Z,32.97
2018-12-15T04:56:42.169Z,34.50
2018-12-15T04:59:10.668Z,35.63
2018-12-15T05:01:38.911Z,36.57
2018-12-15T05:04:07.354Z,35.03
2018-12-15T05:06:35.539Z,34.83
2018-12-15T05:09:04.666Z,33.07
2018-12-15T05:11:33.027Z,35.00
2018-12-15T05:14:01.156Z,33.63
2018-12-15T05:16:29.382Z,36.97
2018-12-15T05:18:57.708Z,36.60
2018-12-15T05:21:25.888Z,35.93
2018-12-15T05:23:54.106Z,38.50
2018-12-15T05:26:22.571Z,31.83
2018-12-15T05:31:46.633Z,34.80
2018-12-15T05:34:14.951Z,36.50
2018-12-15T05:36:43.312Z,34.53
2018-12-15T05:39:11.694Z,35.40
2018-12-15T05:41:39.895Z,34.27
2018-12-15T05:44:08.390Z,35.33
2018-12-15T05:46:49.133Z,34.67
2018-12-15T05:49:17.553Z,36.97
2018-12-15T05:51:45.857Z,37.50
2018-12-15T05:54:14.080Z,35.57
2018-12-15T05:56:42.368Z,37.97
2018-12-15T05:59:11.198Z,34.73
2018-12-15T06:01:39.843Z,34.60
2018-12-15T06:04:08.363Z,37.60
2018-12-15T06:06:36.500Z,36.40
2018-12-15T06:09:05.559Z,35.00
2018-12-15T06:11:43.342Z,33.93
2018-12-15T06:14:23.745Z,35.70
2018-12-15T06:17:01.618Z,33.77
2018-12-15T06:19:36.272Z,30.80
2018-12-15T06:22:16.656Z,34.10
2018-12-15T06:24:44.979Z,33.47
2018-12-15T06:30:11.654Z,31.50
2018-12-15T06:32:39.911Z,30.10
2018-12-15T06:35:08.415Z,30.50
2018-12-15T06:37:36.758Z,35.03
2018-12-15T06:40:05.501Z,33.10
2018-12-15T06:42:44.326Z,36.53
2018-12-15T06:51:11.301Z,34.10
2018-12-15T06:53:46.068Z,34.20
2018-12-15T06:56:26.564Z,33.70
2018-12-15T06:59:01.295Z,33.07
2018-12-15T07:01:31.105Z,32.30
2018-12-15T07:03:59.959Z,29.00
2018-12-15T07:06:28.106Z,31.23
2018-12-15T07:08:56.338Z,31.20
2018-12-15T07:11:24.556Z,31.60
2018-12-15T07:13:53.035Z,30.73
2018-12-15T07:16:21.502Z,28.67
2018-12-15T07:18:50.092Z,28.90
2018-12-15T07:21:18.586Z,28.37
2018-12-15T07:24:02.992Z,32.53
2018-12-15T07:26:39.222Z,25.37
2018-12-15T07:29:17.240Z,24.23
2018-12-15T07:31:56.035Z,26.83
2018-12-15T07:34:36.251Z,26.03
2018-12-15T07:37:13.276Z,26.43
2018-12-15T07:39:48.085Z,28.37
2018-12-15T07:42:26.642Z,26.23
2018-12-15T07:45:04.989Z,26.57
2018-12-15T07:47:42.773Z,22.70
2018-12-15T07:50:17.974Z,29.73
2018-12-15T07:52:55.767Z,21.77
2018-12-15T07:55:36.290Z,22.83
2018-12-15T07:58:16.771Z,24.13
2018-12-15T08:00:53.120Z,22.47
2018-12-15T08:03:28.015Z,26.40
2018-12-15T08:06:12.571Z,24.57
2018-12-15T08:08:53.137Z,27.70
2018-12-15T08:11:37.181Z,26.93
2018-12-15T08:14:17.837Z,24.53
2018-12-15T08:19:54.241Z,29.10
2018-12-15T08:22:34.666Z,25.73
2018-12-15T08:25:15.247Z,27.47
2018-12-15T08:27:53.543Z,28.10
2018-12-15T08:30:30.616Z,29.60
2018-12-15T08:33:07.475Z,26.00
2018-12-15T08:35:43.344Z,30.27
2018-12-15T08:47:11.019Z,29.70
2018-12-15T08:49:45.534Z,26.57
2018-12-15T08:52:26.184Z,25.93
2018-12-15T08:55:10.319Z,30.40
2018-12-15T09:03:39.509Z,25.40
2018-12-15T09:06:07.785Z,24.70
2018-12-15T09:08:39.039Z,25.77
2018-12-15T09:11:15.596Z,27.20
2018-12-15T09:16:51.514Z,30.63
2018-12-15T09:19:19.638Z,25.13
2018-12-15T09:21:59.858Z,27.83
2018-12-15T09:27:23.521Z,26.50
2018-12-15T09:29:52.735Z,24.47
2018-12-15T09:32:22.391Z,25.97
2018-12-15T09:34:52.753Z,28.37
2018-12-15T09:49:20.808Z,25.77
2018-12-15T09:51:49.857Z,41.07
2018-12-15T10:00:17.282Z,26.23
2018-12-15T10:02:55.000Z,26.70
2018-12-15T10:05:35.943Z,28.50
2018-12-15T10:11:00.322Z,25.30
2018-12-15T10:13:28.579Z,28.07
2018-12-15T10:19:05.265Z,24.33
2018-12-15T10:21:40.001Z,26.03
2018-12-15T10:27:07.350Z,25.43
2018-12-15T10:29:48.009Z,24.27
2018-12-15T10:32:27.220Z,25.07
2018-12-15T10:40:57.706Z,25.10
2018-12-15T10:49:23.656Z,24.63
2018-12-15T10:54:38.576Z,25.67
2018-12-15T10:57:09.224Z,23.97
2018-12-15T10:59:39.959Z,26.23
2018-12-15T11:02:09.957Z,25.03
2018-12-15T11:04:39.191Z,21.33
2018-12-15T11:07:07.584Z,23.77
2018-12-15T11:09:43.831Z,24.53
2018-12-15T11:12:19.346Z,25.63
2018-12-15T11:15:00.909Z,25.30
2018-12-15T11:17:38.805Z,23.37
2018-12-15T11:20:19.241Z,26.33
2018-12-15T11:46:57.757Z,23.73
2018-12-15T11:49:27.590Z,22.93
2018-12-15T11:51:56.344Z,22.83
2018-12-15T11:54:25.823Z,21.57
2018-12-15T11:56:54.616Z,19.40
2018-12-15T11:59:24.346Z,26.17
2018-12-15T12:01:54.601Z,20.47
2018-12-15T12:04:24.446Z,23.73
2018-12-15T12:09:40.988Z,21.43
2018-12-15T12:12:12.656Z,20.37
2018-12-15T12:17:37.264Z,22.87
2018-12-15T12:20:13.772Z,22.20
2018-12-15T12:22:41.975Z,22.87
2018-12-15T12:25:10.078Z,22.93
2018-12-15T12:27:38.204Z,23.63
2018-12-15T12:30:06.595Z,21.83
2018-12-15T12:32:34.734Z,21.00
2018-12-15T12:35:03.108Z,24.40
2018-12-15T12:37:32.378Z,22.67
2018-12-15T12:40:13.640Z,22.37
2018-12-15T12:45:45.210Z,25.60
2018-12-15T12:48:23.540Z,29.40
2018-12-15T12:51:05.127Z,24.37
2018-12-15T12:53:43.361Z,25.90
2018-12-15T12:59:19.484Z,25.47
2018-12-15T13:10:50.030Z,24.40
2018-12-15T13:34:06.173Z,24.00
2018-12-15T13:45:32.901Z,22.77
2018-12-15T13:54:02.102Z,27.10
2018-12-15T13:59:37.551Z,25.67
2018-12-15T14:02:13.906Z,26.53
2018-12-15T14:04:51.888Z,23.93
2018-12-15T14:10:16.088Z,24.77
2018-12-15T14:12:45.110Z,23.23
2018-12-15T14:15:13.323Z,27.93
2018-12-15T14:17:43.227Z,25.57
2018-12-15T14:20:16.781Z,28.30
2018-12-15T14:22:41.740Z,22.67
2018-12-15T14:25:09.969Z,25.00
2018-12-15T14:27:42.024Z,26.93
2018-12-15T14:30:11.330Z,25.07
2018-12-15T14:36:07.729Z,26.90
2018-12-15T14:38:36.149Z,24.30
2018-12-15T14:44:00.287Z,28.00
2018-12-15T14:46:28.487Z,28.80
2018-12-15T14:48:58.378Z,29.83
2018-12-15T14:51:26.766Z,29.93
2018-12-15T14:53:55.080Z,27.33
2018-12-15T14:56:24.210Z,27.40
2018-12-15T15:04:45.299Z,29.33
2018-12-15T15:07:13.435Z,27.77
2018-12-15T15:09:41.930Z,29.03
2018-12-15T15:18:04.902Z,30.60
2018-12-15T15:20:40.872Z,32.77
2018-12-15T15:23:15.281Z,31.73
2018-12-15T15:25:43.544Z,29.13
2018-12-15T15:33:45.658Z,30.03
2018-12-15T15:36:13.828Z,31.23
2018-12-15T15:41:53.916Z,29.87
2018-12-15T15:44:22.061Z,32.30
2018-12-15T15:47:07.263Z,29.77
2018-12-15T15:58:34.698Z,33.10
2018-12-15T16:04:11.693Z,32.83
2018-12-15T16:06:42.714Z,38.90
2018-12-15T16:09:11.270Z,34.83
2018-12-15T16:11:56.541Z,34.17
2018-12-15T16:14:27.808Z,32.37
2018-12-15T16:16:59.204Z,34.37
2018-12-15T16:19:37.423Z,33.00
2018-12-15T16:22:16.647Z,28.47
2018-12-15T16:24:52.974Z,33.47
2018-12-15T16:27:27.002Z,35.70
2018-12-15T16:30:01.420Z,35.40
2018-12-15T16:32:30.185Z,33.73
2018-12-15T16:34:58.284Z,33.80
2018-12-15T16:37:27.527Z,33.40
2018-12-15T16:39:57.307Z,33.47
2018-12-15T16:42:28.549Z,30.70
2018-12-15T16:44:56.670Z,33.87
2018-12-15T16:47:25.257Z,32.03
2018-12-15T16:49:54.791Z,33.87
2018-12-15T16:52:23.461Z,34.43
2018-12-15T16:54:51.950Z,32.93
2018-12-15T16:57:20.844Z,36.97
2018-12-15T16:59:50.625Z,36.53
2018-12-15T17:28:47.942Z,29.53
2018-12-15T17:31:16.620Z,32.90
2018-12-15T17:33:50.650Z,29.90
2018-12-15T17:42:10.948Z,28.87
2018-12-15T17:52:58.234Z,29.50
2018-12-15T17:55:39.133Z,26.97
2018-12-15T17:58:07.333Z,29.80
2018-12-15T18:00:47.399Z,29.50
2018-12-15T18:06:19.972Z,27.27
2018-12-15T18:08:58.374Z,26.97
2018-12-15T18:11:36.822Z,30.33
2018-12-15T18:14:05.356Z,28.70
2018-12-15T18:16:36.068Z,27.73
2018-12-15T18:19:12.294Z,27.30
2018-12-15T18:21:41.225Z,24.83
2018-12-15T18:24:09.620Z,26.37
2018-12-15T18:26:37.842Z,26.23
2018-12-15T18:29:09.686Z,27.67
2018-12-15T18:32:14.161Z,26.73
2018-12-15T18:34:42.252Z,25.17
2018-12-15T18:37:10.943Z,33.30
2018-12-15T18:39:39.137Z,25.23
2018-12-15T18:42:10.770Z,27.73
2018-12-15T18:44:37.913Z,27.33
2018-12-15T18:47:12.441Z,26.40
2018-12-15T18:49:40.873Z,27.07
2018-12-15T18:52:09.100Z,25.67
2018-12-15T18:54:37.374Z,26.23
2018-12-15T18:57:06.046Z,27.60
2018-12-15T18:59:34.281Z,27.47
2018-12-15T19:02:08.188Z,26.17
2018-12-15T19:04:36.394Z,30.13
2018-12-15T19:07:04.595Z,27.33
2018-12-15T19:09:32.832Z,24.73
2018-12-15T19:12:01.041Z,28.70
2018-12-15T19:14:42.840Z,27.23
2018-12-15T19:17:11.016Z,26.50
2018-12-15T19:19:39.291Z,27.97
2018-12-15T19:22:07.981Z,25.27
2018-12-15T19:24:37.423Z,31.53
2018-12-15T19:30:10.667Z,26.10
2018-12-15T19:32:49.103Z,27.80
2018-12-15T19:35:27.381Z,30.33
2018-12-15T19:38:02.941Z,28.17
2018-12-15T19:43:42.331Z,25.53
2018-12-15T19:52:19.927Z,27.73
2018-12-15T19:54:56.904Z,28.40
2018-12-15T20:00:33.259Z,26.73
2018-12-15T20:26:46.573Z,25.97
2018-12-15T20:29:25.080Z,23.67
2018-12-15T20:32:06.024Z,28.20
2018-12-15T20:34:44.415Z,28.47
2018-12-15T20:37:19.179Z,26.43
2018-12-15T20:39:59.670Z,26.63
2018-12-15T20:42:35.903Z,29.43
2018-12-15T20:56:35.335Z,29.07
2018-12-15T21:07:44.136Z,26.40
2018-12-15T21:10:20.328Z,23.53
2018-12-15T21:12:58.498Z,28.07
2018-12-15T21:15:40.965Z,28.03
2018-12-15T21:18:16.903Z,26.93
2018-12-15T21:20:55.476Z,28.53
2018-12-15T21:23:33.978Z,27.23
2018-12-15T21:35:04.224Z,27.27
2018-12-15T21:37:32.609Z,31.87
2018-12-15T21:40:00.848Z,31.67
2018-12-15T21:42:29.077Z,31.93
2018-12-15T21:44:57.715Z,27.40
2018-12-15T21:47:25.815Z,32.33
2018-12-15T21:49:54.092Z,33.57
2018-12-15T21:52:22.389Z,30.80
2018-12-15T21:54:50.661Z,33.63
2018-12-15T21:57:19.136Z,31.67
2018-12-15T21:59:47.277Z,31.30
2018-12-15T22:02:15.560Z,31.23
2018-12-15T22:04:44.125Z,32.63
2018-12-15T22:07:12.304Z,34.50
2018-12-15T22:09:40.454Z,36.13
2018-12-15T22:12:08.713Z,35.73
2018-12-15T22:14:37.094Z,33.73
2018-12-15T22:17:05.249Z,35.47
2018-12-15T22:19:33.682Z,36.70
2018-12-15T22:22:03.265Z,35.83
2018-12-15T22:24:31.923Z,31.87
2018-12-15T22:27:00.202Z,35.97
2018-12-15T22:29:28.441Z,40.20
2018-12-15T22:31:56.576Z,36.93
2018-12-15T22:34:24.832Z,40.17
2018-12-15T22:36:53.267Z,37.97
2018-12-15T22:39:26.962Z,41.90
2018-12-15T22:41:55.388Z,41.03
2018-12-15T22:44:23.496Z,39.30
2018-12-15T22:46:51.939Z,43.60
2018-12-15T22:49:20.215Z,44.43
2018-12-15T22:51:48.315Z,42.77
2018-12-15T22:54:16.515Z,44.20
2018-12-15T22:56:44.576Z,42.30
2018-12-15T22:59:12.728Z,41.23
2018-12-15T23:01:45.809Z,41.47
2018-12-15T23:04:15.111Z,40.00
2018-12-15T23:06:43.286Z,40.67
2018-12-15T23:09:11.450Z,43.60
2018-12-15T23:11:39.547Z,42.23
2018-12-15T23:14:07.764Z,46.83
2018-12-15T23:16:35.941Z,46.87
2018-12-15T23:19:04.038Z,43.33
2018-12-15T23:21:32.494Z,46.73
2018-12-15T23:24:00.562Z,45.50
2018-12-15T23:26:28.693Z,48.80
2018-12-15T23:28:57.462Z,48.87
2018-12-15T23:31:25.642Z,51.07
2018-12-15T23:33:53.818Z,47.33
2018-12-15T23:36:21.891Z,48.87
2018-12-15T23:38:50.105Z,48.80
2018-12-15T23:41:18.239Z,49.13
2018-12-15T23:43:46.416Z,55.23
2018-12-15T23:46:14.563Z,51.87
2018-12-15T23:48:42.628Z,48.20
2018-12-15T23:51:10.869Z,51.27
2018-12-15T23:53:39.470Z,46.73
2018-12-15T23:56:08.371Z,50.07
2018-12-15T23:58:36.555Z,53.53
